createdAt,value
2019-06-08T00:01:35.091Z,71.20
2019-06-08T00:04:05.843Z,71.44
2019-06-08T00:06:36.291Z,70.94
2019-06-08T00:09:07.711Z,69.74
2019-06-08T00:11:38.176Z,69.23
2019-06-08T00:14:08.550Z,69.58
2019-06-08T00:16:39.303Z,68.49
2019-06-08T00:19:13.886Z,68.22
2019-06-08T00:21:48.923Z,68.29
2019-06-08T00:24:24.158Z,66.90
2019-06-08T00:26:54.944Z,67.58
2019-06-08T00:29:25.428Z,65.70
2019-06-08T00:31:57.081Z,65.29
2019-06-08T00:34:29.041Z,64.44
2019-06-08T00:36:59.576Z,64.10
2019-06-08T00:39:29.972Z,63.52
2019-06-08T00:42:00.413Z,64.20
2019-06-08T00:44:31.305Z,63.22
2019-06-08T00:47:01.904Z,64.07
2019-06-08T00:49:32.324Z,64.30
2019-06-08T00:52:02.781Z,64.33
2019-06-08T00:54:33.241Z,64.21
2019-06-08T00:57:08.024Z,63.94
2019-06-08T00:59:44.938Z,64.19
2019-06-08T01:02:15.476Z,64.54
2019-06-08T01:04:46.670Z,63.43
2019-06-08T01:07:17.914Z,64.27
2019-06-08T01:09:48.564Z,64.14
2019-06-08T01:12:22.600Z,64.21
2019-06-08T01:14:53.107Z,63.89
2019-06-08T01:17:25.057Z,63.89
2019-06-08T01:19:55.612Z,63.20
2019-06-08T01:22:27.612Z,63.21
2019-06-08T01:24:58.377Z,64.29
2019-06-08T01:27:30.150Z,64.26
2019-06-08T01:30:03.229Z,63.73
2019-06-08T01:32:59.856Z,63.74
2019-06-08T01:35:30.926Z,63.33
2019-06-08T01:38:01.519Z,64.13
2019-06-08T01:40:34.617Z,64.92
2019-06-08T01:43:05.085Z,64.23
2019-06-08T01:45:35.682Z,64.45
2019-06-08T01:48:19.839Z,64.90
2019-06-08T01:50:42.549Z,64.14
2019-06-08T01:53:20.736Z,64.60
2019-06-08T01:55:55.067Z,64.27
2019-06-08T01:58:29.406Z,64.66
2019-06-08T02:01:06.138Z,64.99
2019-06-08T02:03:36.553Z,64.70
2019-06-08T02:06:06.976Z,64.82
2019-06-08T02:08:37.371Z,64.24
2019-06-08T02:11:07.817Z,65.61
2019-06-08T02:13:38.646Z,65.46
2019-06-08T02:16:10.342Z,66.00
2019-06-08T02:18:50.077Z,66.04
2019-06-08T02:21:13.084Z,65.37
2019-06-08T02:23:43.455Z,65.10
2019-06-08T02:26:16.303Z,65.76
2019-06-08T02:28:47.089Z,66.31
2019-06-08T02:31:17.573Z,66.63
2019-06-08T02:33:47.957Z,66.30
2019-06-08T02:36:18.398Z,66.59
2019-06-08T02:38:48.831Z,67.21
2019-06-08T02:41:19.602Z,67.07
2019-06-08T02:43:50.108Z,67.93
2019-06-08T02:46:20.648Z,66.44
2019-06-08T02:49:03.301Z,66.59
2019-06-08T02:51:26.037Z,67.12
2019-06-08T02:53:56.439Z,67.05
2019-06-08T02:56:27.263Z,66.93
2019-06-08T02:58:59.978Z,67.46
2019-06-08T03:01:31.393Z,67.20
2019-06-08T03:04:02.010Z,66.98
2019-06-08T03:06:34.243Z,67.87
2019-06-08T03:09:09.809Z,67.37
2019-06-08T03:11:41.307Z,66.84
2019-06-08T03:14:11.962Z,66.05
2019-06-08T03:16:43.528Z,66.10
2019-06-08T03:19:21.823Z,65.81
2019-06-08T03:21:46.216Z,65.63
2019-06-08T03:24:19.842Z,66.53
2019-06-08T03:26:50.295Z,65.46
2019-06-08T03:29:20.789Z,65.72
2019-06-08T03:31:56.838Z,65.20
2019-06-08T03:34:26.689Z,65.26
2019-06-08T03:36:58.496Z,65.64
2019-06-08T03:39:29.623Z,65.41
2019-06-08T03:42:00.068Z,65.54
2019-06-08T03:44:30.832Z,65.42
2019-06-08T03:47:01.613Z,65.52
2019-06-08T03:49:43.126Z,65.57
2019-06-08T03:52:04.129Z,65.65
2019-06-08T03:54:36.151Z,65.36
2019-06-08T03:57:06.818Z,65.17
2019-06-08T03:59:38.551Z,64.98
2019-06-08T04:02:09.580Z,65.17
2019-06-08T04:04:41.843Z,65.18
2019-06-08T04:07:15.678Z,64.48
2019-06-08T04:09:46.183Z,64.73
2019-06-08T04:12:17.082Z,64.50
2019-06-08T04:14:47.520Z,64.74
2019-06-08T04:17:17.902Z,64.42
2019-06-08T04:20:08.720Z,64.57
2019-06-08T04:22:20.978Z,63.89
2019-06-08T04:24:51.592Z,64.15
2019-06-08T04:27:22.037Z,63.69
2019-06-08T04:29:52.686Z,63.81
2019-06-08T04:32:23.484Z,63.33
2019-06-08T04:34:53.972Z,63.19
2019-06-08T04:37:24.412Z,63.42
2019-06-08T04:39:54.882Z,63.36
2019-06-08T04:42:26.372Z,63.57
2019-06-08T04:44:56.849Z,63.27
2019-06-08T04:47:28.147Z,62.79
2019-06-08T04:49:58.643Z,62.53
2019-06-08T04:52:32.090Z,62.84
2019-06-08T04:55:03.505Z,63.01
2019-06-08T04:57:33.925Z,62.93
2019-06-08T05:00:12.336Z,63.59
2019-06-08T05:02:42.178Z,63.85
2019-06-08T05:05:11.338Z,64.40
2019-06-08T05:07:45.933Z,63.57
2019-06-08T05:10:23.389Z,63.83
2019-06-08T05:12:56.878Z,63.50
2019-06-08T05:15:27.345Z,64.10
2019-06-08T05:17:58.075Z,64.16
2019-06-08T05:20:38.478Z,64.12
2019-06-08T05:23:02.743Z,64.04
2019-06-08T05:25:36.327Z,63.65
2019-06-08T05:28:13.162Z,63.86
2019-06-08T05:30:43.721Z,64.07
2019-06-08T05:33:15.302Z,62.84
2019-06-08T05:35:53.194Z,64.81
2019-06-08T05:38:26.825Z,63.84
2019-06-08T05:40:57.334Z,64.61
2019-06-08T05:43:29.622Z,64.16
2019-06-08T05:46:04.935Z,64.39
2019-06-08T05:48:39.707Z,65.25
2019-06-08T05:51:10.762Z,64.51
2019-06-08T05:53:41.663Z,65.40
2019-06-08T05:56:12.719Z,64.43
2019-06-08T05:58:43.942Z,64.76
2019-06-08T06:01:15.652Z,64.48
2019-06-08T06:03:51.485Z,64.79
2019-06-08T06:06:21.613Z,64.65
2019-06-08T06:08:52.802Z,64.38
2019-06-08T06:11:23.630Z,64.11
2019-06-08T06:13:57.188Z,64.28
2019-06-08T06:16:27.639Z,63.82
2019-06-08T06:18:58.081Z,63.18
2019-06-08T06:21:28.774Z,64.41
2019-06-08T06:24:01.080Z,64.98
2019-06-08T06:26:37.727Z,65.38
2019-06-08T06:29:08.377Z,65.66
2019-06-08T06:31:41.628Z,66.75
2019-06-08T06:34:12.332Z,66.37
2019-06-08T06:36:43.857Z,64.58
2019-06-08T06:39:14.528Z,63.28
2019-06-08T06:41:45.957Z,64.56
2019-06-08T06:44:16.444Z,62.98
2019-06-08T06:46:47.991Z,63.02
2019-06-08T06:49:18.627Z,61.68
2019-06-08T06:51:50.538Z,61.19
2019-06-08T06:54:21.013Z,61.14
2019-06-08T06:56:51.902Z,60.47
2019-06-08T06:59:22.974Z,60.63
2019-06-08T07:01:57.273Z,60.19
2019-06-08T07:04:25.625Z,60.29
2019-06-08T07:06:56.833Z,59.17
2019-06-08T07:09:27.280Z,58.89
2019-06-08T07:11:57.855Z,56.35
2019-06-08T07:14:28.368Z,56.31
2019-06-08T07:16:59.130Z,56.91
2019-06-08T07:19:30.718Z,56.62
2019-06-08T07:22:01.960Z,56.70
2019-06-08T07:24:33.497Z,56.12
2019-06-08T07:27:16.087Z,57.71
2019-06-08T07:29:47.225Z,55.55
2019-06-08T07:32:18.174Z,57.18
2019-06-08T07:34:50.426Z,56.48
2019-06-08T07:37:21.178Z,56.55
2019-06-08T07:39:51.731Z,57.08
2019-06-08T07:42:25.152Z,56.91
2019-06-08T07:44:55.930Z,56.55
2019-06-08T07:47:27.079Z,58.10
2019-06-08T07:49:57.562Z,56.41
2019-06-08T07:52:28.228Z,58.44
2019-06-08T07:54:58.843Z,56.65
2019-06-08T07:57:29.297Z,57.17
2019-06-08T08:00:00.148Z,57.94
2019-06-08T08:02:32.571Z,57.99
2019-06-08T08:05:07.169Z,58.47
2019-06-08T08:07:37.594Z,59.14
2019-06-08T08:10:08.340Z,59.43
2019-06-08T08:12:39.414Z,61.27
2019-06-08T08:15:09.905Z,60.63
2019-06-08T08:17:40.363Z,58.10
2019-06-08T08:20:10.911Z,58.55
2019-06-08T08:22:42.978Z,60.10
2019-06-08T08:25:14.292Z,58.12
2019-06-08T08:27:47.866Z,59.46
2019-06-08T08:30:21.190Z,58.26
2019-06-08T08:32:53.284Z,59.13
2019-06-08T08:35:24.018Z,59.05
2019-06-08T08:37:57.031Z,61.27
2019-06-08T08:40:30.285Z,59.84
2019-06-08T08:43:01.633Z,58.46
2019-06-08T08:45:33.703Z,57.87
2019-06-08T08:48:20.661Z,57.34
2019-06-08T08:50:38.306Z,57.56
2019-06-08T08:53:24.091Z,57.39
2019-06-08T08:56:02.072Z,56.84
2019-06-08T08:58:31.184Z,55.44
2019-06-08T09:01:07.968Z,56.68
2019-06-08T09:03:39.591Z,55.48
2019-06-08T09:06:11.473Z,56.64
2019-06-08T09:08:42.368Z,56.67
2019-06-08T09:11:17.572Z,55.31
2019-06-08T09:14:01.395Z,55.36
2019-06-08T09:16:38.418Z,56.15
2019-06-08T09:19:08.827Z,56.64
2019-06-08T09:21:39.549Z,55.06
2019-06-08T09:24:10.110Z,56.74
2019-06-08T09:26:47.900Z,54.90
2019-06-08T09:29:19.042Z,54.89
2019-06-08T09:31:52.208Z,52.68
2019-06-08T09:34:22.696Z,51.89
2019-06-08T09:40:09.112Z,50.84
2019-06-08T09:42:41.062Z,47.11
2019-06-08T09:45:29.109Z,46.43
2019-06-08T09:48:01.799Z,46.96
2019-06-08T09:50:32.013Z,47.60
2019-06-08T09:53:21.771Z,50.09
2019-06-08T09:55:41.186Z,49.39
2019-06-08T09:58:11.700Z,46.94
2019-06-08T10:00:41.202Z,47.92
2019-06-08T10:03:13.507Z,48.04
2019-06-08T10:05:48.423Z,46.90
2019-06-08T10:08:20.607Z,47.62
2019-06-08T10:11:05.954Z,46.98
2019-06-08T10:13:42.963Z,47.41
2019-06-08T10:16:11.680Z,46.39
2019-06-08T10:18:51.147Z,45.57
2019-06-08T10:21:23.433Z,45.65
2019-06-08T10:24:09.274Z,44.36
2019-06-08T10:26:33.343Z,44.49
2019-06-08T10:29:09.059Z,42.04
2019-06-08T10:31:48.324Z,39.91
2019-06-08T10:34:19.175Z,40.39
2019-06-08T10:37:03.351Z,39.08
2019-06-08T10:39:32.341Z,40.92
2019-06-08T10:42:09.389Z,38.63
2019-06-08T10:44:38.442Z,40.79
2019-06-08T10:47:12.161Z,38.30
2019-06-08T10:49:42.812Z,39.96
2019-06-08T10:52:13.183Z,35.51
2019-06-08T10:54:45.202Z,38.26
2019-06-08T10:57:18.244Z,36.93
2019-06-08T10:59:48.796Z,37.76
2019-06-08T11:02:22.028Z,37.71
2019-06-08T11:04:52.457Z,38.26
2019-06-08T11:07:23.142Z,36.65
2019-06-08T11:10:11.674Z,36.92
2019-06-08T11:12:39.064Z,36.29
2019-06-08T11:15:11.660Z,37.10
2019-06-08T11:17:42.352Z,34.91
2019-06-08T11:20:13.802Z,35.80
2019-06-08T11:22:49.773Z,33.77
2019-06-08T11:25:20.217Z,35.97
2019-06-08T11:27:54.705Z,36.77
2019-06-08T11:30:30.422Z,35.65
2019-06-08T11:33:12.415Z,32.52
2019-06-08T11:35:58.166Z,31.71
2019-06-08T11:38:28.977Z,33.49
2019-06-08T11:41:04.621Z,31.74
2019-06-08T11:43:43.883Z,28.47
2019-06-08T11:46:21.472Z,30.28
2019-06-08T11:48:51.313Z,29.11
2019-06-08T11:54:32.806Z,30.75
2019-06-08T11:56:53.744Z,30.74
2019-06-08T11:59:31.771Z,30.10
2019-06-08T12:02:03.458Z,33.11
2019-06-08T12:04:38.442Z,31.94
2019-06-08T12:07:25.227Z,30.93
2019-06-08T12:09:58.323Z,32.81
2019-06-08T12:12:28.297Z,31.28
2019-06-08T12:14:58.789Z,33.21
2019-06-08T12:17:29.274Z,32.53
2019-06-08T12:20:14.035Z,31.92
2019-06-08T12:22:41.207Z,32.62
2019-06-08T12:25:33.035Z,33.49
2019-06-08T12:28:04.576Z,32.70
2019-06-08T12:30:35.103Z,34.68
2019-06-08T12:33:09.403Z,32.53
2019-06-08T12:35:39.786Z,32.47
2019-06-08T12:38:12.391Z,32.91
2019-06-08T12:40:42.483Z,33.75
2019-06-08T12:43:23.862Z,34.02
2019-06-08T12:45:54.309Z,33.83
2019-06-08T12:48:28.724Z,33.89
2019-06-08T12:50:59.381Z,34.96
2019-06-08T12:53:29.804Z,34.40
2019-06-08T12:56:00.659Z,33.87
2019-06-08T12:58:31.122Z,36.34
2019-06-08T13:01:04.675Z,34.72
2019-06-08T13:03:38.259Z,33.08
2019-06-08T13:06:09.618Z,31.99
2019-06-08T13:08:59.853Z,32.50
2019-06-08T13:11:30.362Z,32.36
2019-06-08T13:14:02.181Z,32.08
2019-06-08T13:16:33.020Z,33.25
2019-06-08T13:19:03.678Z,38.26
2019-06-08T13:21:35.697Z,34.86
2019-06-08T13:24:08.363Z,35.48
2019-06-08T13:26:39.537Z,34.66
2019-06-08T13:29:22.194Z,34.84
2019-06-08T13:31:54.324Z,32.51
2019-06-08T13:34:24.942Z,35.08
2019-06-08T13:36:55.585Z,33.65
2019-06-08T13:39:38.763Z,32.59
2019-06-08T13:42:13.200Z,32.15
2019-06-08T13:44:47.529Z,31.82
2019-06-08T13:47:40.947Z,32.30
2019-06-08T13:50:13.030Z,34.33
2019-06-08T13:52:44.129Z,31.05
2019-06-08T13:55:38.778Z,31.06
2019-06-08T13:57:51.209Z,33.25
2019-06-08T14:00:32.960Z,33.47
2019-06-08T14:03:03.767Z,31.36
2019-06-08T14:05:34.213Z,34.09
2019-06-08T14:08:10.982Z,32.42
2019-06-08T14:10:43.909Z,32.57
2019-06-08T14:13:15.103Z,32.44
2019-06-08T14:16:03.892Z,31.40
2019-06-08T14:18:34.482Z,30.89
2019-06-08T14:21:05.157Z,30.04
2019-06-08T14:23:35.767Z,30.16
2019-06-08T14:26:08.186Z,30.56
2019-06-08T14:28:39.044Z,29.61
2019-06-08T14:31:10.918Z,29.62
2019-06-08T14:33:41.835Z,29.50
2019-06-08T14:36:12.287Z,30.16
2019-06-08T14:38:45.793Z,30.53
2019-06-08T14:41:29.814Z,29.55
2019-06-08T14:44:01.072Z,28.85
2019-06-08T14:46:31.490Z,29.47
2019-06-08T14:49:03.351Z,29.40
2019-06-08T14:51:52.548Z,29.86
2019-06-08T14:54:26.640Z,29.66
2019-06-08T14:57:03.092Z,28.83
2019-06-08T14:59:35.591Z,29.23
2019-06-08T15:02:19.346Z,30.40
2019-06-08T15:04:57.224Z,28.52
2019-06-08T15:07:32.640Z,28.70
2019-06-08T15:10:11.886Z,29.80
2019-06-08T15:12:57.741Z,29.55
2019-06-08T15:15:30.731Z,29.39
2019-06-08T15:18:04.897Z,29.38
2019-06-08T15:20:34.102Z,29.84
2019-06-08T15:23:04.894Z,30.99
2019-06-08T15:25:35.590Z,30.25
2019-06-08T15:28:14.692Z,28.95
2019-06-08T15:30:45.206Z,28.38
2019-06-08T15:33:18.188Z,30.05
2019-06-08T15:35:48.866Z,30.76
2019-06-08T15:38:25.349Z,30.43
2019-06-08T15:41:07.913Z,29.82
2019-06-08T15:43:42.580Z,29.83
2019-06-08T15:46:26.379Z,30.56
2019-06-08T15:49:08.475Z,29.80
2019-06-08T15:51:48.095Z,30.96
2019-06-08T15:57:38.086Z,29.86
2019-06-08T16:00:10.175Z,30.91
2019-06-08T16:02:45.825Z,30.22
2019-06-08T16:05:30.261Z,30.56
2019-06-08T16:11:20.940Z,28.70
2019-06-08T16:13:59.104Z,28.62
2019-06-08T16:16:31.134Z,28.62
2019-06-08T16:19:10.805Z,29.39
2019-06-08T16:21:59.282Z,28.71
2019-06-08T16:24:31.860Z,28.13
2019-06-08T16:27:11.334Z,28.79
2019-06-08T16:29:41.969Z,27.17
2019-06-08T16:32:16.047Z,28.91
2019-06-08T16:34:46.641Z,27.94
2019-06-08T16:40:17.682Z,27.96
2019-06-08T16:42:50.983Z,29.94
2019-06-08T16:45:21.446Z,28.92
2019-06-08T16:47:53.124Z,29.48
2019-06-08T16:50:28.051Z,29.98
2019-06-08T16:52:59.272Z,29.38
2019-06-08T16:55:29.773Z,29.53
2019-06-08T16:58:00.269Z,28.77
2019-06-08T17:00:37.141Z,28.78
2019-06-08T17:03:07.198Z,27.87
2019-06-08T17:05:38.537Z,27.90
2019-06-08T17:08:09.217Z,28.82
2019-06-08T17:10:42.180Z,28.17
2019-06-08T17:13:14.328Z,28.16
2019-06-08T17:15:53.044Z,28.66
2019-06-08T17:18:23.896Z,29.01
2019-06-08T17:20:54.741Z,29.39
2019-06-08T17:23:25.263Z,29.46
2019-06-08T17:26:07.148Z,30.18
2019-06-08T17:28:45.082Z,29.61
2019-06-08T17:31:15.524Z,30.40
2019-06-08T17:34:01.532Z,31.70
2019-06-08T17:36:37.110Z,31.46
2019-06-08T17:39:08.122Z,31.33
2019-06-08T17:41:40.242Z,31.07
2019-06-08T17:44:10.838Z,31.34
2019-06-08T17:46:44.551Z,31.80
2019-06-08T17:49:18.171Z,32.56
2019-06-08T17:51:50.024Z,32.40
2019-06-08T17:54:20.483Z,32.04
2019-06-08T17:56:51.193Z,32.90
2019-06-08T17:59:23.567Z,32.34
2019-06-08T18:01:54.375Z,33.48
2019-06-08T18:04:25.202Z,33.78
2019-06-08T18:07:03.774Z,34.83
2019-06-08T18:09:45.173Z,35.82
2019-06-08T18:12:18.270Z,36.83
2019-06-08T18:14:54.350Z,38.75
2019-06-08T18:17:27.851Z,37.52
2019-06-08T18:20:11.759Z,37.34
2019-06-08T18:22:49.384Z,39.48
2019-06-08T18:25:17.582Z,39.85
2019-06-08T18:30:45.107Z,40.15
2019-06-08T18:33:18.079Z,42.07
2019-06-08T18:35:49.429Z,41.91
2019-06-08T18:38:27.273Z,40.41
2019-06-08T18:40:58.649Z,43.23
2019-06-08T18:43:35.432Z,41.47
2019-06-08T18:46:07.069Z,42.86
2019-06-08T18:48:42.166Z,42.51
2019-06-08T18:51:17.568Z,43.87
2019-06-08T18:54:06.736Z,44.62
2019-06-08T18:56:22.718Z,45.22
2019-06-08T18:58:58.180Z,45.99
2019-06-08T19:01:32.779Z,46.23
2019-06-08T19:04:04.733Z,49.53
2019-06-08T19:06:48.751Z,49.40
2019-06-08T19:09:19.307Z,49.04
2019-06-08T19:11:57.523Z,50.16
2019-06-08T19:14:31.095Z,48.70
2019-06-08T19:17:02.103Z,50.90
2019-06-08T19:19:38.511Z,50.32
2019-06-08T19:22:12.345Z,50.82
2019-06-08T19:25:02.104Z,50.11
2019-06-08T19:27:45.891Z,49.62
2019-06-08T19:30:29.425Z,49.59
2019-06-08T19:32:59.956Z,49.71
2019-06-08T19:35:53.745Z,49.97
2019-06-08T19:38:24.801Z,49.85
2019-06-08T19:40:57.261Z,49.84
2019-06-08T19:43:32.043Z,51.17
2019-06-08T19:46:04.008Z,51.80
2019-06-08T19:48:42.791Z,52.84
2019-06-08T19:51:13.066Z,53.89
2019-06-08T19:53:49.271Z,53.50
2019-06-08T19:56:21.385Z,55.00
2019-06-08T19:59:00.912Z,55.33
2019-06-08T20:01:24.200Z,56.67
2019-06-08T20:03:55.004Z,56.95
2019-06-08T20:06:37.965Z,58.71
2019-06-08T20:09:08.355Z,58.40
2019-06-08T20:11:55.531Z,59.01
2019-06-08T20:14:28.724Z,59.67
2019-06-08T20:17:11.724Z,58.45
2019-06-08T20:19:44.813Z,60.99
2019-06-08T20:22:19.444Z,60.19
2019-06-08T20:24:55.287Z,60.49
2019-06-08T20:27:29.244Z,60.39
2019-06-08T20:30:08.064Z,62.55
2019-06-08T20:32:37.849Z,62.99
2019-06-08T20:35:11.901Z,63.13
2019-06-08T20:37:43.569Z,61.87
2019-06-08T20:40:29.607Z,63.69
2019-06-08T20:43:00.286Z,65.04
2019-06-08T20:45:30.710Z,64.86
2019-06-08T20:48:01.159Z,65.99
2019-06-08T20:50:32.012Z,64.76
2019-06-08T20:53:08.142Z,65.60
2019-06-08T20:55:43.065Z,65.52
2019-06-08T20:58:30.405Z,65.59
2019-06-08T21:01:01.359Z,65.26
2019-06-08T21:03:43.576Z,65.28
2019-06-08T21:06:17.138Z,65.24
2019-06-08T21:08:53.272Z,64.15
2019-06-08T21:11:27.143Z,65.98
2019-06-08T21:14:05.932Z,67.01
2019-06-08T21:16:44.671Z,67.14
2019-06-08T21:19:24.222Z,66.77
2019-06-08T21:21:56.033Z,66.10
2019-06-08T21:24:30.258Z,66.38
2019-06-08T21:27:03.023Z,66.47
2019-06-08T21:29:47.723Z,66.40
2019-06-08T21:32:13.247Z,66.83
2019-06-08T21:34:50.858Z,66.78
2019-06-08T21:37:28.193Z,67.07
2019-06-08T21:40:03.600Z,67.89
2019-06-08T21:42:37.395Z,67.54
2019-06-08T21:45:29.910Z,69.10
2019-06-08T21:48:03.895Z,68.39
2019-06-08T21:50:48.960Z,68.51
2019-06-08T21:53:32.902Z,67.91
2019-06-08T21:56:20.473Z,69.70
2019-06-08T21:58:53.166Z,69.64
2019-06-08T22:01:28.428Z,68.62
2019-06-08T22:04:02.634Z,69.18
2019-06-08T22:06:37.300Z,68.67
2019-06-08T22:09:11.159Z,69.65
2019-06-08T22:11:43.620Z,68.63
2019-06-08T22:14:27.211Z,69.73
2019-06-08T22:17:00.127Z,69.56
2019-06-08T22:19:33.045Z,69.78
2019-06-08T22:22:08.177Z,69.48
2019-06-08T22:24:42.160Z,70.03
2019-06-08T22:27:12.673Z,71.26
2019-06-08T22:29:48.325Z,71.86
2019-06-08T22:32:18.195Z,71.50
2019-06-08T22:35:11.730Z,70.98
2019-06-08T22:37:45.160Z,70.85
2019-06-08T22:40:17.557Z,72.87
2019-06-08T22:42:52.832Z,72.26
2019-06-08T22:45:29.077Z,71.80
2019-06-08T22:48:01.824Z,72.22
2019-06-08T22:50:47.660Z,72.46
2019-06-08T22:53:19.128Z,72.55
2019-06-08T22:55:50.055Z,71.02
2019-06-08T22:58:23.822Z,71.58
2019-06-08T23:00:57.041Z,73.19
2019-06-08T23:03:26.394Z,72.86
2019-06-08T23:06:05.621Z,72.50
2019-06-08T23:08:43.197Z,72.78
2019-06-08T23:11:14.976Z,73.43
2019-06-08T23:13:49.097Z,74.21
2019-06-08T23:16:21.579Z,73.62
2019-06-08T23:18:57.271Z,73.99
2019-06-08T23:21:27.558Z,72.93
2019-06-08T23:23:59.865Z,73.02
2019-06-08T23:26:34.232Z,74.52
2019-06-08T23:29:09.694Z,73.40
2019-06-08T23:34:32.320Z,74.71
2019-06-08T23:37:06.593Z,73.64
2019-06-08T23:39:38.982Z,74.64
2019-06-08T23:42:09.962Z,75.31
2019-06-08T23:44:41.576Z,75.04
2019-06-08T23:47:12.105Z,74.56
2019-06-08T23:49:47.477Z,75.06
2019-06-08T23:52:20.908Z,74.45
2019-06-08T23:54:52.823Z,74.61
2019-06-08T23:57:29.594Z,75.08
